createdAt,value
2018-08-04T00:02:27.248Z,98520.00
2018-08-04T00:04:55.995Z,98522.00
2018-08-04T00:07:24.854Z,98521.00
2018-08-04T00:09:53.649Z,98519.00
2018-08-04T00:12:22.088Z,98520.00
2018-08-04T00:14:50.748Z,98526.00
2018-08-04T00:17:19.479Z,98515.00
2018-08-04T00:19:48.090Z,98519.00
2018-08-04T00:22:16.570Z,98517.00
2018-08-04T00:24:45.343Z,98516.00
2018-08-04T00:27:14.056Z,98512.00
2018-08-04T00:29:42.726Z,98510.00
2018-08-04T00:32:11.190Z,98505.00
2018-08-04T00:34:39.895Z,98505.00
2018-08-04T00:37:09.478Z,98506.00
2018-08-04T00:39:38.118Z,98507.00
2018-08-04T00:42:06.966Z,98498.00
2018-08-04T00:44:36.056Z,98506.00
2018-08-04T00:47:04.699Z,98504.00
2018-08-04T00:49:33.611Z,98509.00
2018-08-04T00:52:02.281Z,98504.00
2018-08-04T00:54:31.117Z,98500.00
2018-08-04T00:56:59.737Z,98507.00
2018-08-04T00:59:28.430Z,98498.00
2018-08-04T01:01:57.123Z,98502.00
2018-08-04T01:04:25.913Z,98498.00
2018-08-04T01:06:54.617Z,98503.00
2018-08-04T01:09:23.255Z,98498.00
2018-08-04T01:11:51.968Z,98504.00
2018-08-04T01:14:20.655Z,98500.00
2018-08-04T01:16:49.362Z,98499.00
2018-08-04T01:19:18.158Z,98497.00
2018-08-04T01:21:46.830Z,98497.00
2018-08-04T01:24:15.493Z,98504.00
2018-08-04T01:26:44.138Z,98498.00
2018-08-04T01:29:12.668Z,98499.00
2018-08-04T01:31:41.270Z,98499.00
2018-08-04T01:34:09.884Z,98500.00
2018-08-04T01:36:38.283Z,98502.00
2018-08-04T01:39:09.090Z,98503.00
2018-08-04T01:41:37.780Z,98505.00
2018-08-04T01:44:06.223Z,98504.00
2018-08-04T01:46:34.923Z,98502.00
2018-08-04T01:49:03.584Z,98500.00
2018-08-04T01:51:32.310Z,98502.00
2018-08-04T01:54:00.971Z,98498.00
2018-08-04T01:56:29.478Z,98506.00
2018-08-04T01:58:58.195Z,98506.00
2018-08-04T02:01:26.837Z,98502.00
2018-08-04T02:03:55.471Z,98506.00
2018-08-04T02:06:24.145Z,98507.00
2018-08-04T02:08:52.825Z,98508.00
2018-08-04T02:11:21.488Z,98505.00
2018-08-04T02:13:50.200Z,98502.00
2018-08-04T02:16:18.823Z,98497.00
2018-08-04T02:18:47.475Z,98496.00
2018-08-04T02:21:16.107Z,98495.00
2018-08-04T02:23:44.848Z,98491.00
2018-08-04T02:26:13.475Z,98384.00
2018-08-04T02:28:42.098Z,98490.00
2018-08-04T02:31:10.758Z,98492.00
2018-08-04T02:33:39.245Z,98488.00
2018-08-04T02:36:07.726Z,98489.00
2018-08-04T02:38:36.451Z,98490.00
2018-08-04T02:41:05.354Z,98486.00
2018-08-04T02:43:34.003Z,98482.00
2018-08-04T02:46:02.699Z,98474.00
2018-08-04T02:48:31.325Z,98473.00
2018-08-04T02:50:59.967Z,98468.00
2018-08-04T02:53:28.615Z,98468.00
2018-08-04T02:55:57.235Z,98465.00
2018-08-04T02:58:25.937Z,98465.00
2018-08-04T03:00:54.528Z,98460.00
2018-08-04T03:03:23.144Z,98461.00
2018-08-04T03:05:51.748Z,98470.00
2018-08-04T03:08:20.246Z,98469.00
2018-08-04T03:10:48.862Z,98469.00
2018-08-04T03:13:17.515Z,98470.00
2018-08-04T03:15:46.173Z,98464.00
2018-08-04T03:18:14.785Z,98463.00
2018-08-04T03:20:43.383Z,98466.00
2018-08-04T03:23:12.025Z,98459.00
2018-08-04T03:25:40.647Z,98464.00
2018-08-04T03:28:09.255Z,98469.00
2018-08-04T03:30:37.883Z,98472.00
2018-08-04T03:33:06.427Z,98476.00
2018-08-04T03:35:35.068Z,98473.00
2018-08-04T03:38:03.668Z,98474.00
2018-08-04T03:40:32.343Z,98469.00
2018-08-04T03:43:00.983Z,98463.00
2018-08-04T03:45:29.650Z,98467.00
2018-08-04T03:47:58.358Z,98455.00
2018-08-04T03:50:26.995Z,98455.00
2018-08-04T03:52:55.628Z,98453.00
2018-08-04T03:55:24.199Z,98459.00
2018-08-04T03:57:52.805Z,98458.00
2018-08-04T04:00:21.250Z,98457.00
2018-08-04T04:02:49.917Z,98451.00
2018-08-04T04:05:18.587Z,98454.00
2018-08-04T04:07:47.289Z,98451.00
2018-08-04T04:10:16.017Z,98460.00
2018-08-04T04:12:44.650Z,98456.00
2018-08-04T04:15:13.255Z,98470.00
2018-08-04T04:17:48.670Z,98466.00
2018-08-04T04:20:18.563Z,98465.00
2018-08-04T04:22:47.243Z,98464.00
2018-08-04T04:25:15.870Z,98460.00
2018-08-04T04:27:44.610Z,98463.00
2018-08-04T04:30:13.882Z,98464.00
2018-08-04T04:32:42.482Z,98461.00
2018-08-04T04:35:11.111Z,98465.00
2018-08-04T04:37:39.908Z,98466.00
2018-08-04T04:40:08.558Z,98471.00
2018-08-04T04:42:37.158Z,98473.00
2018-08-04T04:45:05.903Z,98470.00
2018-08-04T04:47:34.550Z,98471.00
2018-08-04T04:50:03.306Z,98468.00
2018-08-04T04:52:31.968Z,98469.00
2018-08-04T04:55:00.603Z,98472.00
2018-08-04T04:57:29.273Z,98471.00
2018-08-04T04:59:57.933Z,98473.00
2018-08-04T05:02:26.358Z,98472.00
2018-08-04T05:04:54.991Z,98472.00
2018-08-04T05:07:23.636Z,98472.00
2018-08-04T05:09:52.355Z,98474.00
2018-08-04T05:12:20.993Z,98473.00
2018-08-04T05:14:49.664Z,98482.00
2018-08-04T05:17:18.366Z,98484.00
2018-08-04T05:19:47.030Z,98484.00
2018-08-04T05:22:15.696Z,98483.00
2018-08-04T05:24:44.168Z,98487.00
2018-08-04T05:27:12.838Z,98489.00
2018-08-04T05:29:41.664Z,98492.00
2018-08-04T05:32:10.472Z,98494.00
2018-08-04T05:34:39.139Z,98497.00
2018-08-04T05:37:07.951Z,98496.00
2018-08-04T05:39:36.626Z,98495.00
2018-08-04T05:42:05.517Z,98487.00
2018-08-04T05:44:34.171Z,98491.00
2018-08-04T05:47:03.656Z,98486.00
2018-08-04T05:49:32.336Z,98488.00
2018-08-04T05:52:01.166Z,98492.00
2018-08-04T05:54:29.628Z,98492.00
2018-08-04T05:56:58.349Z,98502.00
2018-08-04T05:59:27.046Z,98502.00
2018-08-04T06:01:55.716Z,98501.00
2018-08-04T06:04:24.521Z,98499.00
2018-08-04T06:06:53.384Z,98500.00
2018-08-04T06:09:22.103Z,98498.00
2018-08-04T06:11:50.800Z,98500.00
2018-08-04T06:14:19.483Z,98504.00
2018-08-04T06:16:48.140Z,98504.00
2018-08-04T06:19:16.799Z,98504.00
2018-08-04T06:21:45.516Z,98507.00
2018-08-04T06:24:14.186Z,98514.00
2018-08-04T06:26:42.925Z,98513.00
2018-08-04T06:29:11.720Z,98518.00
2018-08-04T06:31:40.383Z,98520.00
2018-08-04T06:34:09.161Z,98516.00
2018-08-04T06:36:37.790Z,98512.00
2018-08-04T06:39:07.485Z,98512.00
2018-08-04T06:41:36.092Z,98513.00
2018-08-04T06:44:04.846Z,98511.00
2018-08-04T06:46:33.491Z,98510.00
2018-08-04T06:49:02.679Z,98510.00
2018-08-04T06:51:31.398Z,98507.00
2018-08-04T06:54:00.106Z,98513.00
2018-08-04T06:56:29.696Z,98515.00
2018-08-04T06:58:58.318Z,98509.00
2018-08-04T07:01:26.816Z,98512.00
2018-08-04T07:03:55.448Z,98512.00
2018-08-04T07:06:24.078Z,98508.00
2018-08-04T07:08:52.696Z,98507.00
2018-08-04T07:11:21.376Z,98507.00
2018-08-04T07:13:50.213Z,98503.00
2018-08-04T07:16:18.971Z,98504.00
2018-08-04T07:18:47.594Z,98505.00
2018-08-04T07:21:16.241Z,98504.00
2018-08-04T07:23:45.007Z,98512.00
2018-08-04T07:26:13.678Z,98510.00
2018-08-04T07:28:42.495Z,98507.00
2018-08-04T07:31:11.335Z,98513.00
2018-08-04T07:33:39.811Z,98515.00
2018-08-04T07:36:08.614Z,98512.00
2018-08-04T07:38:38.186Z,98508.00
2018-08-04T07:41:06.906Z,98509.00
2018-08-04T07:43:35.570Z,98509.00
2018-08-04T07:46:04.306Z,98507.00
2018-08-04T07:48:32.891Z,98504.00
2018-08-04T07:51:01.876Z,98501.00
2018-08-04T07:53:30.645Z,98507.00
2018-08-04T07:55:59.411Z,98506.00
2018-08-04T07:58:28.145Z,98507.00
2018-08-04T08:00:56.810Z,98506.00
2018-08-04T08:03:25.470Z,98505.00
2018-08-04T08:05:54.003Z,98503.00
2018-08-04T08:08:22.692Z,98501.00
2018-08-04T08:10:51.489Z,98506.00
2018-08-04T08:13:20.098Z,98507.00
2018-08-04T08:15:48.796Z,98502.00
2018-08-04T08:18:17.511Z,98499.00
2018-08-04T08:20:46.223Z,98500.00
2018-08-04T08:23:14.945Z,98494.00
2018-08-04T08:26:08.627Z,98492.00
2018-08-04T08:28:37.723Z,98495.00
2018-08-04T08:31:06.587Z,98492.00
2018-08-04T08:33:35.623Z,98499.00
2018-08-04T08:36:04.467Z,98496.00
2018-08-04T08:38:33.231Z,98497.00
2018-08-04T08:41:01.972Z,98491.00
2018-08-04T08:43:30.777Z,98491.00
2018-08-04T08:45:59.796Z,98492.00
2018-08-04T08:48:28.535Z,98487.00
2018-08-04T08:50:57.264Z,98480.00
2018-08-04T08:53:26.047Z,98478.00
2018-08-04T08:55:54.721Z,98477.00
2018-08-04T08:58:23.444Z,98474.00
2018-08-04T09:00:52.202Z,98476.00
2018-08-04T09:03:20.948Z,98472.00
2018-08-04T09:05:50.216Z,98466.00
2018-08-04T09:08:18.859Z,98464.00
2018-08-04T09:10:47.553Z,98458.00
2018-08-04T09:13:16.296Z,98462.00
2018-08-04T09:15:44.960Z,98456.00
2018-08-04T09:18:13.651Z,98455.00
2018-08-04T09:20:42.479Z,98461.00
2018-08-04T09:23:11.269Z,98458.00
2018-08-04T09:25:39.984Z,98456.00
2018-08-04T09:28:08.753Z,98452.00
2018-08-04T09:30:37.512Z,98458.00
2018-08-04T09:33:06.626Z,98453.00
2018-08-04T09:35:35.374Z,98457.00
2018-08-04T09:38:04.111Z,98451.00
2018-08-04T09:40:32.773Z,98456.00
2018-08-04T09:43:01.471Z,98454.00
2018-08-04T09:45:30.123Z,98451.00
2018-08-04T09:47:58.785Z,98448.00
2018-08-04T09:50:27.521Z,98451.00
2018-08-04T09:52:56.238Z,98455.00
2018-08-04T09:55:24.914Z,98448.00
2018-08-04T09:57:53.709Z,98442.00
2018-08-04T10:00:28.066Z,98443.00
2018-08-04T10:02:56.830Z,98451.00
2018-08-04T10:05:25.641Z,98451.00
2018-08-04T10:07:54.345Z,98453.00
2018-08-04T10:10:23.041Z,98453.00
2018-08-04T10:12:51.569Z,98454.00
2018-08-04T10:15:20.286Z,98449.00
2018-08-04T10:17:49.021Z,98445.00
2018-08-04T10:20:17.754Z,98447.00
2018-08-04T10:22:46.507Z,98446.00
2018-08-04T10:25:15.231Z,98447.00
2018-08-04T10:27:43.963Z,98451.00
2018-08-04T10:30:12.966Z,98442.00
2018-08-04T10:32:41.631Z,98444.00
2018-08-04T10:35:10.454Z,98440.00
2018-08-04T10:37:39.149Z,98439.00
2018-08-04T10:40:07.976Z,98438.00
2018-08-04T10:42:36.722Z,98434.00
2018-08-04T10:45:06.563Z,98432.00
2018-08-04T10:47:35.326Z,98439.00
2018-08-04T10:50:04.632Z,98432.00
2018-08-04T10:52:33.986Z,98440.00
2018-08-04T10:55:02.684Z,98427.00
2018-08-04T10:57:31.389Z,98432.00
2018-08-04T11:00:00.068Z,98433.00
2018-08-04T11:02:28.969Z,98426.00
2018-08-04T11:04:58.652Z,98426.00
2018-08-04T11:07:27.656Z,98422.00
2018-08-04T11:09:56.330Z,98420.00
2018-08-04T11:12:25.029Z,98412.00
2018-08-04T11:14:53.663Z,98418.00
2018-08-04T11:17:22.588Z,98418.00
2018-08-04T11:19:51.261Z,98409.00
2018-08-04T11:22:19.976Z,98409.00
2018-08-04T11:24:48.598Z,98405.00
2018-08-04T11:27:17.242Z,98408.00
2018-08-04T11:29:46.366Z,98406.00
2018-08-04T11:32:15.084Z,98398.00
2018-08-04T11:34:43.493Z,98395.00
2018-08-04T11:37:12.446Z,98400.00
2018-08-04T11:39:41.118Z,98398.00
2018-08-04T11:42:09.800Z,98400.00
2018-08-04T11:44:38.601Z,98394.00
2018-08-04T11:47:07.289Z,98389.00
2018-08-04T11:49:36.058Z,98385.00
2018-08-04T11:52:04.774Z,98390.00
2018-08-04T11:54:33.546Z,98388.00
2018-08-04T11:57:02.325Z,98377.00
2018-08-04T11:59:31.799Z,98372.00
2018-08-04T12:02:01.946Z,98372.00
2018-08-04T12:04:30.754Z,98368.00
2018-08-04T12:06:59.429Z,98363.00
2018-08-04T12:09:28.197Z,98360.00
2018-08-04T12:11:57.208Z,98359.00
2018-08-04T12:14:25.981Z,98354.00
2018-08-04T12:16:55.251Z,98348.00
2018-08-04T12:19:24.530Z,98346.00
2018-08-04T12:21:53.448Z,98342.00
2018-08-04T12:24:22.333Z,98327.00
2018-08-04T12:26:51.606Z,98325.00
2018-08-04T12:29:20.212Z,98317.00
2018-08-04T12:31:49.034Z,98320.00
2018-08-04T12:34:18.498Z,98309.00
2018-08-04T12:36:47.358Z,98307.00
2018-08-04T12:39:16.522Z,98310.00
2018-08-04T12:41:46.760Z,98302.00
2018-08-04T12:44:15.781Z,98310.00
2018-08-04T12:46:44.316Z,98305.00
2018-08-04T12:49:13.034Z,98312.00
2018-08-04T12:51:41.521Z,98313.00
2018-08-04T12:54:10.221Z,98310.00
2018-08-04T12:56:38.952Z,98313.00
2018-08-04T12:59:07.825Z,98312.00
2018-08-04T13:01:37.166Z,98316.00
2018-08-04T13:04:06.293Z,98320.00
2018-08-04T13:06:35.979Z,98309.00
2018-08-04T13:09:07.827Z,98307.00
2018-08-04T13:11:37.689Z,98299.00
2018-08-04T13:14:06.468Z,98286.00
2018-08-04T13:16:35.303Z,98289.00
2018-08-04T13:19:04.113Z,98288.00
2018-08-04T13:21:32.909Z,98294.00
2018-08-04T13:24:01.705Z,98294.00
2018-08-04T13:26:30.457Z,98292.00
2018-08-04T13:28:59.221Z,98293.00
2018-08-04T13:31:28.024Z,98289.00
2018-08-04T13:33:56.912Z,98293.00
2018-08-04T13:36:26.581Z,98290.00
2018-08-04T13:38:56.521Z,98287.00
2018-08-04T13:41:25.826Z,98286.00
2018-08-04T13:43:54.606Z,98286.00
2018-08-04T13:46:23.716Z,98294.00
2018-08-04T13:48:52.613Z,98296.00
2018-08-04T13:51:21.400Z,98310.00
2018-08-04T13:53:50.064Z,98315.00
2018-08-04T13:56:18.824Z,98321.00
2018-08-04T13:58:47.496Z,98337.00
2018-08-04T14:01:16.136Z,98352.00
2018-08-04T14:03:45.295Z,98342.00
2018-08-04T14:06:14.140Z,98345.00
2018-08-04T14:08:43.199Z,98363.00
2018-08-04T14:11:11.913Z,98374.00
2018-08-04T14:13:40.591Z,98397.00
2018-08-04T14:16:10.666Z,98408.00
2018-08-04T14:18:39.428Z,98418.00
2018-08-04T14:21:08.176Z,98429.00
2018-08-04T14:23:36.918Z,98445.00
2018-08-04T14:26:05.532Z,98478.00
2018-08-04T14:28:34.286Z,98494.00
2018-08-04T14:31:03.006Z,98534.00
2018-08-04T14:33:32.564Z,98562.00
2018-08-04T14:36:01.477Z,98558.00
2018-08-04T14:38:29.981Z,98530.00
2018-08-04T14:40:58.613Z,98504.00
2018-08-04T14:43:27.436Z,98484.00
2018-08-04T14:45:56.101Z,98509.00
2018-08-04T14:48:25.591Z,98519.00
2018-08-04T14:50:54.763Z,98523.00
2018-08-04T14:53:24.354Z,98542.00
2018-08-04T14:55:53.485Z,98520.00
2018-08-04T14:58:23.405Z,98514.00
2018-08-04T15:00:52.455Z,98518.00
2018-08-04T15:03:21.270Z,98523.00
2018-08-04T15:05:50.723Z,98507.00
2018-08-04T15:08:19.465Z,98508.00
2018-08-04T15:10:48.201Z,98492.00
2018-08-04T15:13:16.793Z,98477.00
2018-08-04T15:15:45.556Z,98474.00
2018-08-04T15:18:13.994Z,98470.00
2018-08-04T15:20:42.610Z,98472.00
2018-08-04T15:23:11.238Z,98477.00
2018-08-04T15:25:40.375Z,98487.00
2018-08-04T15:28:08.899Z,98495.00
2018-08-04T15:30:37.573Z,98503.00
2018-08-04T15:33:06.313Z,98491.00
2018-08-04T15:35:35.011Z,98489.00
2018-08-04T15:38:04.118Z,98490.00
2018-08-04T15:40:32.798Z,98501.00
2018-08-04T15:43:01.444Z,98513.00
2018-08-04T15:45:30.125Z,98508.00
2018-08-04T15:47:58.960Z,98502.00
2018-08-04T15:50:27.619Z,98492.00
2018-08-04T15:52:56.278Z,98480.00
2018-08-04T15:55:25.043Z,98487.00
2018-08-04T15:57:53.580Z,98494.00
2018-08-04T16:00:22.286Z,98503.00
2018-08-04T16:02:50.998Z,98509.00
2018-08-04T16:05:19.715Z,98508.00
2018-08-04T16:07:48.353Z,98514.00
2018-08-04T16:10:17.153Z,98517.00
2018-08-04T16:12:45.657Z,98514.00
2018-08-04T16:15:14.358Z,98508.00
2018-08-04T16:17:43.063Z,98504.00
2018-08-04T16:20:14.456Z,98494.00
2018-08-04T16:22:43.656Z,98496.00
2018-08-04T16:25:12.736Z,98504.00
2018-08-04T16:27:42.833Z,98510.00
2018-08-04T16:30:11.666Z,98516.00
2018-08-04T16:32:40.960Z,98508.00
2018-08-04T16:35:09.854Z,98513.00
2018-08-04T16:37:38.548Z,98512.00
2018-08-04T16:40:07.238Z,98513.00
2018-08-04T16:42:36.118Z,98517.00
2018-08-04T16:45:05.472Z,98517.00
2018-08-04T16:47:34.918Z,98514.00
2018-08-04T16:50:04.768Z,98515.00
2018-08-04T16:52:33.575Z,98511.00
2018-08-04T16:55:02.332Z,98512.00
2018-08-04T16:57:31.617Z,98493.00
2018-08-04T17:00:00.644Z,98519.00
2018-08-04T17:02:29.355Z,98522.00
2018-08-04T17:04:58.048Z,98525.00
2018-08-04T17:07:26.670Z,98527.00
2018-08-04T17:09:56.036Z,98528.00
2018-08-04T17:12:24.780Z,98533.00
2018-08-04T17:14:53.226Z,98533.00
2018-08-04T17:17:21.986Z,98531.00
2018-08-04T17:19:50.738Z,98536.00
2018-08-04T17:22:20.369Z,98539.00
2018-08-04T17:24:49.059Z,98544.00
2018-08-04T17:27:17.703Z,98549.00
2018-08-04T17:29:46.546Z,98549.00
2018-08-04T17:32:15.409Z,98540.00
2018-08-04T17:34:44.154Z,98532.00
2018-08-04T17:37:12.877Z,98532.00
2018-08-04T17:39:41.591Z,98534.00
2018-08-04T17:42:11.203Z,98530.00
2018-08-04T17:44:39.686Z,98533.00
2018-08-04T17:47:08.215Z,98535.00
2018-08-04T17:49:36.961Z,98531.00
2018-08-04T17:52:05.546Z,98530.00
2018-08-04T17:54:34.395Z,98526.00
2018-08-04T17:57:03.262Z,98523.00
2018-08-04T17:59:31.944Z,98515.00
2018-08-04T18:02:00.711Z,98521.00
2018-08-04T18:04:30.111Z,98520.00
2018-08-04T18:06:58.838Z,98525.00
2018-08-04T18:09:27.596Z,98531.00
2018-08-04T18:11:56.284Z,98533.00
2018-08-04T18:14:24.980Z,98526.00
2018-08-04T18:16:53.758Z,98526.00
2018-08-04T18:19:22.512Z,98523.00
2018-08-04T18:21:50.958Z,98527.00
2018-08-04T18:24:19.748Z,98523.00
2018-08-04T18:26:48.710Z,98522.00
2018-08-04T18:29:17.531Z,98521.00
2018-08-04T18:31:46.329Z,98521.00
2018-08-04T18:34:15.229Z,98531.00
2018-08-04T18:36:44.071Z,98526.00
2018-08-04T18:39:12.833Z,98523.00
2018-08-04T18:41:41.563Z,98526.00
2018-08-04T18:44:10.290Z,98523.00
2018-08-04T18:46:39.188Z,98522.00
2018-08-04T18:49:09.016Z,98521.00
2018-08-04T18:51:37.718Z,98528.00
2018-08-04T18:54:06.722Z,98526.00
2018-08-04T18:56:35.414Z,98521.00
2018-08-04T18:59:04.208Z,98523.00
2018-08-04T19:01:33.685Z,98525.00
2018-08-04T19:04:02.471Z,98533.00
2018-08-04T19:06:31.202Z,98529.00
2018-08-04T19:09:00.636Z,98532.00
2018-08-04T19:11:29.536Z,98533.00
2018-08-04T19:13:58.360Z,98531.00
2018-08-04T19:16:27.119Z,98535.00
2018-08-04T19:18:55.923Z,98532.00
2018-08-04T19:21:24.758Z,98530.00
2018-08-04T19:23:53.739Z,98529.00
2018-08-04T19:26:22.836Z,98535.00
2018-08-04T19:28:51.728Z,98528.00
2018-08-04T19:31:20.493Z,98533.00
2018-08-04T19:33:49.429Z,98540.00
2018-08-04T19:36:19.200Z,98542.00
2018-08-04T19:38:47.998Z,98549.00
2018-08-04T19:41:17.073Z,98551.00
2018-08-04T19:43:45.741Z,98554.00
2018-08-04T19:46:14.431Z,98552.00
2018-08-04T19:48:43.198Z,98555.00
2018-08-04T19:51:11.986Z,98551.00
2018-08-04T19:53:40.909Z,98552.00
2018-08-04T19:56:10.457Z,98553.00
2018-08-04T19:58:39.271Z,98547.00
2018-08-04T20:01:08.139Z,98550.00
2018-08-04T20:03:36.658Z,98544.00
2018-08-04T20:06:05.571Z,98547.00
2018-08-04T20:08:34.480Z,98549.00
2018-08-04T20:11:03.301Z,98546.00
2018-08-04T20:13:32.040Z,98544.00
2018-08-04T20:16:01.117Z,98545.00
2018-08-04T20:18:29.817Z,98547.00
2018-08-04T20:20:58.633Z,98548.00
2018-08-04T20:23:27.338Z,98549.00
2018-08-04T20:25:55.940Z,98546.00
2018-08-04T20:28:25.171Z,98541.00
2018-08-04T20:30:54.629Z,98538.00
2018-08-04T20:33:24.438Z,98540.00
2018-08-04T20:35:53.309Z,98540.00
2018-08-04T20:38:22.001Z,98539.00
2018-08-04T20:40:51.401Z,98544.00
2018-08-04T20:43:20.165Z,98549.00
2018-08-04T20:45:49.000Z,98542.00
2018-08-04T20:48:17.808Z,98542.00
2018-08-04T20:50:46.583Z,98542.00
2018-08-04T20:53:15.491Z,98537.00
2018-08-04T20:55:44.224Z,98541.00
2018-08-04T20:58:13.073Z,98540.00
2018-08-04T21:00:46.482Z,98543.00
2018-08-04T21:03:15.561Z,98546.00
2018-08-04T21:05:44.450Z,98549.00
2018-08-04T21:08:13.665Z,98543.00
2018-08-04T21:10:42.451Z,98539.00
2018-08-04T21:13:11.172Z,98545.00
2018-08-04T21:15:39.819Z,98549.00
2018-08-04T21:18:08.538Z,98549.00
2018-08-04T21:20:37.400Z,98549.00
2018-08-04T21:23:06.396Z,98546.00
2018-08-04T21:25:35.073Z,98549.00
2018-08-04T21:28:03.943Z,98555.00
2018-08-04T21:30:32.910Z,98546.00
2018-08-04T21:33:01.572Z,98546.00
2018-08-04T21:35:30.318Z,98543.00
2018-08-04T21:37:59.666Z,98543.00
2018-08-04T21:40:28.437Z,98543.00
2018-08-04T21:42:57.155Z,98544.00
2018-08-04T21:45:25.718Z,98546.00
2018-08-04T21:47:54.601Z,98541.00
2018-08-04T21:50:23.376Z,98535.00
2018-08-04T21:52:52.206Z,98539.00
2018-08-04T21:55:21.810Z,98539.00
2018-08-04T21:57:50.410Z,98540.00
2018-08-04T22:00:20.079Z,98535.00
2018-08-04T22:02:58.721Z,98531.00
2018-08-04T22:05:28.251Z,98529.00
2018-08-04T22:08:13.569Z,98531.00
2018-08-04T22:10:43.311Z,98536.00
2018-08-04T22:13:12.328Z,98538.00
2018-08-04T22:15:41.094Z,98537.00
2018-08-04T22:18:09.791Z,98536.00
2018-08-04T22:20:38.533Z,98544.00
2018-08-04T22:23:07.251Z,98548.00
2018-08-04T22:25:36.051Z,98546.00
2018-08-04T22:28:05.086Z,98552.00
2018-08-04T22:30:33.768Z,98554.00
2018-08-04T22:33:02.460Z,98556.00
2018-08-04T22:35:31.126Z,98549.00
2018-08-04T22:37:59.770Z,98551.00
2018-08-04T22:40:28.305Z,98549.00
2018-08-04T22:42:57.001Z,98542.00
2018-08-04T22:45:52.343Z,98549.00
2018-08-04T22:48:21.680Z,98551.00
2018-08-04T22:50:50.520Z,98554.00
2018-08-04T22:53:20.079Z,98553.00
2018-08-04T22:55:48.920Z,98551.00
2018-08-04T22:58:17.468Z,98550.00
2018-08-04T23:00:46.188Z,98543.00
2018-08-04T23:03:15.438Z,98550.00
2018-08-04T23:05:44.210Z,98548.00
2018-08-04T23:08:13.400Z,98546.00
2018-08-04T23:10:42.371Z,98550.00
2018-08-04T23:13:11.964Z,98549.00
2018-08-04T23:15:40.808Z,98553.00
2018-08-04T23:18:09.814Z,98552.00
2018-08-04T23:20:38.510Z,98550.00
2018-08-04T23:23:08.627Z,98552.00
2018-08-04T23:25:37.322Z,98550.00
2018-08-04T23:28:06.213Z,98550.00
2018-08-04T23:30:34.921Z,98547.00
2018-08-04T23:33:03.648Z,98547.00
2018-08-04T23:35:32.373Z,98539.00
2018-08-04T23:38:01.088Z,98542.00
2018-08-04T23:40:29.765Z,98541.00
2018-08-04T23:42:58.491Z,98537.00
2018-08-04T23:45:27.268Z,98544.00
2018-08-04T23:47:56.010Z,98532.00
2018-08-04T23:50:24.860Z,98532.00
2018-08-04T23:52:53.615Z,98529.00
2018-08-04T23:55:22.396Z,98526.00
2018-08-04T23:57:51.096Z,98519.00
